Time;durP1;ratioP1;P1;durP2;ratioP2;P2;SDS_P1;SDS_P2;PMS_P1;PMS_P2;Temp;Humidity;BMP_temperature;BMP_pressure;BME280_temperature;BME280_humidity;BME280_pressure;Samples;Min_cycle;Max_cycle;Signal;HPM_P1;HPM_P2
2021/03/05 00:00:40;;;;;;;16.45;7.20;;;8.30;66.90;;;;;;4942316;28;20045;-63
2021/03/05 00:03:06;;;;;;;18.10;8.93;;;8.20;67.00;;;;;;4938259;28;20028;-63
2021/03/05 00:05:34;;;;;;;14.57;8.80;;;8.20;66.60;;;;;;4964279;28;20041;-63
2021/03/05 00:08:00;;;;;;;15.38;7.82;;;8.20;66.70;;;;;;4951003;28;20023;-63
2021/03/05 00:10:31;;;;;;;14.43;8.07;;;8.10;67.10;;;;;;4951645;28;20399;-63
2021/03/05 00:12:57;;;;;;;14.48;7.88;;;8.00;67.30;;;;;;4948949;28;20031;-63
2021/03/05 00:15:25;;;;;;;16.25;9.02;;;8.00;67.50;;;;;;4958682;28;20401;-63
2021/03/05 00:17:51;;;;;;;15.15;8.82;;;8.10;67.30;;;;;;4948382;28;20393;-63
2021/03/05 00:20:20;;;;;;;16.92;7.53;;;8.00;67.20;;;;;;4952707;28;20043;-63
2021/03/05 00:22:46;;;;;;;15.75;9.15;;;7.90;67.50;;;;;;4950957;28;20055;-63
2021/03/05 00:25:12;;;;;;;13.93;8.48;;;7.90;67.40;;;;;;4955874;28;20116;-63
2021/03/05 00:27:37;;;;;;;15.52;8.07;;;8.00;66.70;;;;;;4971123;28;20033;-63
2021/03/05 00:30:07;;;;;;;17.27;8.73;;;7.90;67.10;;;;;;5017253;28;20032;-63
2021/03/05 00:32:34;;;;;;;15.50;7.85;;;7.90;67.10;;;;;;4957686;28;20031;-63
2021/03/05 00:34:59;;;;;;;17.02;8.15;;;7.90;67.30;;;;;;4954315;28;20062;-63
2021/03/05 00:37:25;;;;;;;18.23;8.38;;;7.80;66.80;;;;;;4954143;28;20027;-63
2021/03/05 00:39:51;;;;;;;15.93;8.25;;;7.80;67.30;;;;;;4956602;28;20035;-63
2021/03/05 00:42:16;;;;;;;15.52;8.85;;;7.90;66.60;;;;;;4950471;28;20381;-63
2021/03/05 00:44:42;;;;;;;15.13;8.32;;;7.90;67.10;;;;;;4979097;28;20129;-63
2021/03/05 00:47:08;;;;;;;15.45;9.05;;;7.90;66.40;;;;;;4997442;28;20078;-63
2021/03/05 00:49:33;;;;;;;14.90;8.35;;;7.90;66.90;;;;;;4968598;28;20496;-63
2021/03/05 00:51:59;;;;;;;12.00;7.50;;;7.90;65.90;;;;;;4951325;28;20114;-63
2021/03/05 00:54:25;;;;;;;14.13;8.00;;;7.90;66.40;;;;;;4971313;28;20045;-63
2021/03/05 00:56:50;;;;;;;18.80;7.90;;;8.00;66.20;;;;;;5003235;28;20037;-63
2021/03/05 00:59:16;;;;;;;16.23;9.00;;;8.00;65.90;;;;;;4957583;28;20084;-63
2021/03/05 01:01:41;;;;;;;13.18;7.63;;;7.80;65.20;;;;;;4991265;28;20094;-63
2021/03/05 01:04:08;;;;;;;12.65;6.50;;;7.80;65.80;;;;;;4960507;28;20043;-62
2021/03/05 01:06:33;;;;;;;12.35;7.07;;;7.60;65.30;;;;;;4982533;28;20036;-63
2021/03/05 01:08:59;;;;;;;13.40;6.63;;;7.60;65.80;;;;;;4950703;28;20041;-63
2021/03/05 01:11:24;;;;;;;14.05;7.35;;;7.50;65.40;;;;;;4948967;28;20428;-62
2021/03/05 01:13:50;;;;;;;13.20;7.55;;;7.40;65.90;;;;;;4948312;28;20031;-63
2021/03/05 01:16:16;;;;;;;13.35;7.57;;;7.40;65.80;;;;;;4992896;28;20106;-63
2021/03/05 01:18:42;;;;;;;12.40;7.63;;;7.40;65.50;;;;;;5024026;28;20031;-63
2021/03/05 01:21:08;;;;;;;14.18;7.43;;;7.40;66.00;;;;;;4954077;28;20470;-63
2021/03/05 01:23:33;;;;;;;14.18;7.47;;;7.30;65.80;;;;;;4947628;28;20069;-63
2021/03/05 01:25:59;;;;;;;12.73;5.97;;;7.20;66.20;;;;;;4951443;28;20051;-63
2021/03/05 01:28:25;;;;;;;17.90;7.80;;;7.20;66.30;;;;;;4972235;28;20029;-63
2021/03/05 01:30:51;;;;;;;12.25;7.18;;;7.20;65.60;;;;;;4964721;28;20023;-62
2021/03/05 01:33:16;;;;;;;10.95;6.78;;;7.10;66.10;;;;;;4955440;28;20401;-62
2021/03/05 01:35:42;;;;;;;11.90;6.28;;;7.20;66.10;;;;;;4974809;28;20473;-63
2021/03/05 01:38:08;;;;;;;13.15;6.80;;;7.20;65.40;;;;;;4958355;28;20500;-62
2021/03/05 01:40:37;;;;;;;12.45;7.30;;;7.10;65.90;;;;;;4951065;28;20073;-63
2021/03/05 01:43:11;;;;;;;11.55;6.22;;;7.10;65.60;;;;;;4949182;28;20042;-63
2021/03/05 01:45:37;;;;;;;;;;;7.00;66.20;;;;;;4984556;28;20037;-63
2021/03/05 01:48:07;;;;;;;17.05;7.57;;;6.90;65.80;;;;;;4962094;28;19942;-63
2021/03/05 01:50:58;;;;;;;11.33;6.40;;;6.80;66.30;;;;;;4944200;28;20100;-63
2021/03/05 01:53:25;;;;;;;12.82;6.65;;;6.80;66.30;;;;;;4997942;28;20037;-63
2021/03/05 01:55:51;;;;;;;15.57;7.93;;;6.80;66.80;;;;;;4942000;28;20045;-62
2021/03/05 01:58:17;;;;;;;13.87;7.30;;;6.70;66.30;;;;;;4962905;28;20038;-63
2021/03/05 02:01:07;;;;;;;14.23;7.67;;;6.70;66.60;;;;;;4954745;28;20098;-63
2021/03/05 02:03:33;;;;;;;13.63;7.70;;;6.70;66.70;;;;;;4950418;28;20161;-63
2021/03/05 02:06:00;;;;;;;14.60;7.40;;;6.60;67.20;;;;;;4948564;28;20039;-62
2021/03/05 02:08:25;;;;;;;14.98;8.82;;;6.60;67.30;;;;;;4949771;28;20054;-63
2021/03/05 02:10:51;;;;;;;13.17;6.83;;;6.50;67.40;;;;;;5001860;28;20473;-63
2021/03/05 02:13:18;;;;;;;15.27;8.18;;;6.50;67.50;;;;;;4939064;28;20378;-63
2021/03/05 02:15:45;;;;;;;13.17;7.70;;;6.50;67.10;;;;;;4941007;28;20039;-63
2021/03/05 02:18:33;;;;;;;13.63;7.60;;;6.40;67.40;;;;;;4952101;28;20028;-62
2021/03/05 02:21:37;;;;;;;14.13;8.47;;;6.40;68.10;;;;;;4973720;28;20025;-62
2021/03/05 02:24:34;;;;;;;13.73;6.90;;;6.40;67.40;;;;;;4943171;28;20060;-63
2021/03/05 02:27:30;;;;;;;13.30;8.10;;;6.40;68.00;;;;;;4943880;28;20027;-63
2021/03/05 02:30:14;;;;;;;13.47;7.57;;;6.30;68.30;;;;;;4981546;28;20039;-62
2021/03/05 02:33:06;;;;;;;17.40;8.23;;;6.30;68.40;;;;;;4950726;28;20106;-62
2021/03/05 02:35:33;;;;;;;17.27;7.10;;;6.30;68.50;;;;;;4964541;28;20053;-63
2021/03/05 02:38:04;;;;;;;16.33;8.93;;;6.20;68.80;;;;;;4971722;28;20031;-62
2021/03/05 02:40:37;;;;;;;15.53;8.27;;;6.20;68.90;;;;;;5027711;28;20040;-63
2021/03/05 02:43:07;;;;;;;13.93;6.93;;;6.10;68.80;;;;;;4943847;28;20035;-63
2021/03/05 02:45:39;;;;;;;14.20;8.07;;;6.10;69.30;;;;;;4962410;28;20396;-63
2021/03/05 02:48:20;;;;;;;17.03;8.70;;;6.10;69.30;;;;;;5022310;28;20170;-63
2021/03/05 02:50:52;;;;;;;16.53;8.27;;;6.10;69.00;;;;;;4952560;28;20037;-62
2021/03/05 02:53:19;;;;;;;14.57;7.07;;;6.00;69.00;;;;;;4985072;28;20027;-62
2021/03/05 02:55:53;;;;;;;14.30;8.00;;;6.00;69.50;;;;;;4961613;28;20111;-62
2021/03/05 02:58:21;;;;;;;13.87;7.73;;;6.00;69.10;;;;;;4971037;28;20114;-62
2021/03/05 03:00:48;;;;;;;13.87;7.30;;;6.00;69.60;;;;;;4939009;28;20035;-62
2021/03/05 03:03:14;;;;;;;19.53;9.23;;;5.90;69.60;;;;;;4952686;28;20039;-63
2021/03/05 03:05:41;;;;;;;19.17;9.03;;;5.90;69.30;;;;;;4986796;28;20102;-62
2021/03/05 03:08:09;;;;;;;15.13;8.47;;;5.90;69.80;;;;;;4979182;28;20037;-62
2021/03/05 03:10:36;;;;;;;15.57;6.87;;;5.80;69.80;;;;;;4951625;28;20503;-63
2021/03/05 03:13:03;;;;;;;12.93;7.27;;;5.90;69.80;;;;;;4971174;28;20044;-63
2021/03/05 03:15:31;;;;;;;14.93;7.53;;;5.80;69.40;;;;;;4945352;28;20126;-63
2021/03/05 03:18:03;;;;;;;13.27;6.97;;;5.70;69.90;;;;;;4991069;28;20381;-62
2021/03/05 03:20:29;;;;;;;18.93;8.53;;;5.80;69.40;;;;;;4973526;28;20071;-63
2021/03/05 03:22:55;;;;;;;16.33;8.00;;;5.80;69.20;;;;;;4954575;28;20132;-63
2021/03/05 03:25:23;;;;;;;15.50;7.20;;;5.80;69.70;;;;;;4943037;28;20047;-63
2021/03/05 03:27:50;;;;;;;13.03;6.67;;;5.80;68.90;;;;;;4948207;28;20469;-63
2021/03/05 03:30:17;;;;;;;17.83;8.93;;;5.80;69.40;;;;;;4947011;28;20084;-62
2021/03/05 03:32:43;;;;;;;13.90;7.47;;;5.80;68.80;;;;;;4948411;28;20027;-63
2021/03/05 03:35:11;;;;;;;16.43;8.13;;;5.70;69.20;;;;;;4938916;28;20485;-63
2021/03/05 03:37:38;;;;;;;14.43;7.07;;;5.70;69.20;;;;;;4970150;28;20430;-63
2021/03/05 03:40:09;;;;;;;13.27;7.90;;;5.70;69.10;;;;;;5004395;28;20032;-63
2021/03/05 03:42:35;;;;;;;14.37;6.87;;;5.70;69.00;;;;;;4969301;28;20027;-63
2021/03/05 03:45:04;;;;;;;12.97;6.53;;;5.70;68.80;;;;;;4967885;28;20039;-62
2021/03/05 03:47:30;;;;;;;12.93;6.90;;;5.60;68.90;;;;;;4951102;28;20027;-62
2021/03/05 03:49:57;;;;;;;13.83;6.90;;;5.60;68.90;;;;;;4972258;28;20048;-62
2021/03/05 03:52:54;;;;;;;14.23;7.00;;;5.60;68.20;;;;;;4950868;28;20027;-63
2021/03/05 03:55:20;;;;;;;16.33;7.60;;;5.60;68.80;;;;;;4967784;28;20087;-62
2021/03/05 03:57:49;;;;;;;13.00;6.20;;;5.60;67.90;;;;;;4975769;28;20031;-62
2021/03/05 04:00:16;;;;;;;15.07;6.80;;;5.50;68.40;;;;;;4956709;28;20170;-62
2021/03/05 04:02:48;;;;;;;14.73;6.70;;;5.50;68.00;;;;;;4943914;28;20032;-63
2021/03/05 04:05:17;;;;;;;12.77;6.23;;;5.40;68.40;;;;;;4953890;28;20104;-62
2021/03/05 04:07:45;;;;;;;13.47;5.90;;;5.40;68.40;;;;;;4983638;28;20029;-63
2021/03/05 04:10:12;;;;;;;13.27;6.73;;;5.50;67.60;;;;;;4963776;28;20169;-62
2021/03/05 04:12:38;;;;;;;10.77;6.07;;;5.40;68.10;;;;;;5000875;28;20310;-62
2021/03/05 04:15:05;;;;;;;13.00;6.07;;;5.50;68.00;;;;;;4967857;28;20051;-63
2021/03/05 04:17:31;;;;;;;12.07;5.97;;;5.40;67.30;;;;;;4952072;28;20043;-62
2021/03/05 04:19:57;;;;;;;14.20;5.87;;;5.40;67.80;;;;;;4945935;28;20035;-63
2021/03/05 04:22:24;;;;;;;10.67;5.30;;;5.40;67.10;;;;;;4949817;28;20035;-63
2021/03/05 04:24:50;;;;;;;12.83;7.03;;;5.40;67.60;;;;;;4950811;28;20039;-63
2021/03/05 04:27:16;;;;;;;10.43;5.57;;;5.30;67.40;;;;;;4965835;28;20054;-62
2021/03/05 04:29:42;;;;;;;15.10;6.90;;;5.30;67.40;;;;;;4948439;28;20067;-63
2021/03/05 04:32:07;;;;;;;12.50;6.47;;;5.30;67.40;;;;;;4959093;28;20366;-62
2021/03/05 04:34:34;;;;;;;15.50;6.30;;;5.20;67.10;;;;;;4947803;28;20051;-62
2021/03/05 04:37:00;;;;;;;11.83;6.60;;;5.20;67.10;;;;;;4976256;28;20035;-63
2021/03/05 04:39:25;;;;;;;12.40;6.63;;;5.20;67.70;;;;;;5050138;28;20040;-62
2021/03/05 04:41:51;;;;;;;11.67;6.80;;;5.20;67.60;;;;;;4997108;28;20480;-62
2021/03/05 04:44:17;;;;;;;11.73;6.03;;;5.20;67.60;;;;;;4951845;28;20039;-62
2021/03/05 04:46:43;;;;;;;14.47;6.30;;;5.20;67.30;;;;;;4947527;28;20035;-63
2021/03/05 04:49:08;;;;;;;12.43;6.40;;;5.20;67.20;;;;;;5009524;28;20044;-63
2021/03/05 04:51:34;;;;;;;12.30;5.63;;;5.20;67.70;;;;;;4995165;28;20098;-62
2021/03/05 04:54:00;;;;;;;12.37;6.03;;;5.20;67.70;;;;;;4953658;28;20039;-63
2021/03/05 04:56:26;;;;;;;12.67;6.10;;;5.10;67.60;;;;;;4967377;28;20058;-62
2021/03/05 04:58:52;;;;;;;16.57;7.57;;;5.10;68.10;;;;;;4971523;28;20098;-63
2021/03/05 05:01:17;;;;;;;17.77;8.33;;;5.00;68.20;;;;;;4964641;28;20041;-62
2021/03/05 05:03:43;;;;;;;12.37;6.17;;;4.90;68.50;;;;;;4946467;28;20047;-62
2021/03/05 05:06:09;;;;;;;12.93;7.07;;;4.90;68.40;;;;;;4950903;28;20125;-62
2021/03/05 05:08:35;;;;;;;13.00;7.03;;;4.80;68.40;;;;;;5021061;28;20454;-62
2021/03/05 05:11:01;;;;;;;13.60;6.97;;;4.80;68.40;;;;;;4950834;28;20112;-62
2021/03/05 05:13:26;;;;;;;12.43;6.57;;;4.80;68.90;;;;;;4948427;28;20035;-63
2021/03/05 05:15:52;;;;;;;13.17;5.50;;;4.80;68.90;;;;;;4947925;29;20543;-62
2021/03/05 05:18:19;;;;;;;12.83;6.53;;;4.80;68.20;;;;;;4930622;29;20040;-62
2021/03/05 05:20:44;;;;;;;12.37;5.50;;;4.80;68.10;;;;;;4994612;28;20029;-62
2021/03/05 05:23:10;;;;;;;14.60;6.27;;;4.80;68.00;;;;;;4946205;28;20040;-62
2021/03/05 05:25:36;;;;;;;10.43;4.73;;;4.70;68.00;;;;;;4948476;28;20089;-62
2021/03/05 05:28:02;;;;;;;14.30;6.17;;;4.70;68.00;;;;;;4948876;28;20044;-62
2021/03/05 05:30:27;;;;;;;10.03;5.53;;;4.60;67.90;;;;;;4949904;28;20055;-62
2021/03/05 05:32:53;;;;;;;15.63;6.53;;;4.70;67.90;;;;;;4940543;28;20398;-62
2021/03/05 05:35:19;;;;;;;12.40;5.43;;;4.60;68.40;;;;;;4938747;28;20062;-62
2021/03/05 05:37:44;;;;;;;12.60;5.87;;;4.60;68.20;;;;;;4948331;28;20047;-61
2021/03/05 05:40:10;;;;;;;10.60;5.07;;;4.70;68.20;;;;;;4945987;28;20324;-61
2021/03/05 05:42:36;;;;;;;14.20;6.00;;;4.70;68.00;;;;;;4949601;28;20458;-61
2021/03/05 05:45:03;;;;;;;14.07;6.60;;;4.70;67.10;;;;;;4949886;28;20096;-61
2021/03/05 05:47:30;;;;;;;12.07;5.70;;;4.60;67.60;;;;;;4971014;28;20354;-64
2021/03/05 05:50:02;;;;;;;12.20;4.47;;;4.60;67.70;;;;;;5039378;28;20040;-64
2021/03/05 05:52:30;;;;;;;11.50;4.90;;;4.60;67.80;;;;;;4950584;28;20049;-64
2021/03/05 05:54:56;;;;;;;10.03;4.90;;;4.60;67.10;;;;;;4943227;28;20122;-61
2021/03/05 05:57:23;;;;;;;10.23;5.53;;;4.60;66.80;;;;;;4942092;28;20031;-61
2021/03/05 05:59:49;;;;;;;12.77;5.17;;;4.60;67.30;;;;;;4946340;28;20055;-61
2021/03/05 06:02:16;;;;;;;25.73;6.20;;;4.50;67.10;;;;;;4947402;28;20058;-61
2021/03/05 06:04:42;;;;;;;10.27;5.03;;;4.40;67.60;;;;;;4944770;28;20444;-61
2021/03/05 06:07:08;;;;;;;9.83;4.70;;;4.40;68.20;;;;;;4931470;28;20035;-61
2021/03/05 06:09:34;;;;;;;9.03;5.10;;;4.30;67.50;;;;;;4933114;28;20112;-61
2021/03/05 06:12:10;;;;;;;11.17;4.53;;;4.20;67.70;;;;;;4949990;28;20106;-61
2021/03/05 06:14:35;;;;;;;11.83;5.47;;;4.40;67.00;;;;;;4958706;28;20129;-64
2021/03/05 06:17:02;;;;;;;10.90;4.40;;;4.40;66.70;;;;;;4934851;28;20114;-64
2021/03/05 06:19:29;;;;;;;10.23;5.07;;;4.40;66.60;;;;;;4950349;28;20027;-64
2021/03/05 06:21:56;;;;;;;10.83;4.33;;;4.40;66.40;;;;;;4967844;28;20107;-64
2021/03/05 06:24:22;;;;;;;9.70;4.33;;;4.50;66.10;;;;;;4956555;28;20032;-64
2021/03/05 06:26:59;;;;;;;8.27;4.23;;;4.60;65.90;;;;;;4949704;28;20036;-64
2021/03/05 06:29:48;;;;;;;13.97;5.37;;;4.60;65.40;;;;;;4943613;28;20102;-64
2021/03/05 06:32:16;;;;;;;11.33;4.50;;;4.70;65.10;;;;;;4939010;28;20058;-64
2021/03/05 06:34:54;;;;;;;9.13;4.07;;;4.60;65.60;;;;;;4934415;28;20035;-64
2021/03/05 06:37:22;;;;;;;12.27;5.53;;;4.60;64.90;;;;;;4947700;28;20040;-64
2021/03/05 06:40:00;;;;;;;10.17;4.40;;;4.70;64.90;;;;;;4940858;28;20039;-64
2021/03/05 06:42:26;;;;;;;9.23;3.80;;;4.70;64.70;;;;;;4937746;28;20031;-64
2021/03/05 06:44:52;;;;;;;8.73;4.43;;;4.80;64.50;;;;;;4938205;28;22397;-64
2021/03/05 06:47:22;;;;;;;16.20;5.97;;;4.80;64.30;;;;;;4942021;28;20035;-64
2021/03/05 06:49:49;;;;;;;9.97;4.80;;;4.90;64.10;;;;;;4947605;28;20039;-65
2021/03/05 06:52:16;;;;;;;18.00;4.83;;;4.90;63.70;;;;;;4944037;28;20043;-65
2021/03/05 06:54:42;;;;;;;8.40;4.10;;;4.80;64.20;;;;;;4941729;28;20568;-65
2021/03/05 06:57:10;;;;;;;8.10;3.50;;;4.90;63.70;;;;;;4955355;28;20137;-62
2021/03/05 06:59:45;;;;;;;8.33;3.80;;;4.90;63.60;;;;;;4934132;28;20109;-62
2021/03/05 07:02:14;;;;;;;11.47;4.57;;;5.00;63.60;;;;;;4937181;28;20096;-62
2021/03/05 07:04:43;;;;;;;8.17;4.10;;;5.00;63.40;;;;;;4936066;28;20039;-62
2021/03/05 07:07:10;;;;;;;9.57;3.53;;;5.10;63.10;;;;;;4939303;28;20032;-62
2021/03/05 07:09:40;;;;;;;8.03;3.50;;;5.00;63.60;;;;;;4942812;28;20025;-62
2021/03/05 07:12:17;;;;;;;9.63;3.93;;;5.10;62.90;;;;;;4938536;28;20156;-62
2021/03/05 07:14:48;;;;;;;10.60;4.43;;;5.20;62.90;;;;;;4940724;28;20738;-62
2021/03/05 07:17:15;;;;;;;12.83;4.90;;;5.20;62.80;;;;;;4938284;28;20035;-62
2021/03/05 07:19:41;;;;;;;9.03;3.90;;;5.20;62.40;;;;;;4936377;28;20031;-64
2021/03/05 07:22:08;;;;;;;10.37;3.53;;;5.20;62.50;;;;;;4938638;28;20062;-63
2021/03/05 07:24:38;;;;;;;7.87;3.20;;;5.30;62.70;;;;;;4955822;28;20046;-63
2021/03/05 07:27:06;;;;;;;10.67;4.60;;;5.30;63.20;;;;;;4939027;28;20802;-63
2021/03/05 07:29:45;;;;;;;9.97;3.60;;;5.50;62.20;;;;;;4936912;28;20055;-62
2021/03/05 07:32:14;;;;;;;10.10;5.13;;;5.60;61.70;;;;;;4937391;28;20134;-64
2021/03/05 07:34:46;;;;;;;10.87;4.77;;;5.80;61.50;;;;;;4937423;28;20126;-63
2021/03/05 07:37:13;;;;;;;9.63;3.53;;;5.80;62.00;;;;;;4939525;28;20043;-63
2021/03/05 07:39:42;;;;;;;9.53;3.43;;;6.80;59.80;;;;;;4938887;28;20050;-63
2021/03/05 07:42:08;;;;;;;9.67;3.63;;;6.90;60.30;;;;;;4936372;28;20583;-63
2021/03/05 07:44:36;;;;;;;6.93;3.10;;;8.30;58.40;;;;;;4939437;28;21597;-63
2021/03/05 07:47:06;;;;;;;8.73;3.78;;;9.70;56.00;;;;;;4939124;28;20489;-64
2021/03/05 07:49:34;;;;;;;7.82;3.50;;;12.00;48.10;;;;;;4941325;28;20042;-64
2021/03/05 07:52:00;;;;;;;9.68;3.70;;;13.10;46.00;;;;;;4943528;28;20051;-63
2021/03/05 07:54:43;;;;;;;8.15;3.72;;;13.30;46.80;;;;;;4921762;28;20075;-64
2021/03/05 07:57:29;;;;;;;8.93;3.70;;;14.80;43.40;;;;;;4939520;28;20039;-64
2021/03/05 07:59:56;;;;;;;8.95;3.95;;;16.60;39.80;;;;;;4949000;28;20722;-64
2021/03/05 08:02:23;;;;;;;14.98;4.25;;;19.00;33.50;;;;;;4937465;28;20034;-64
2021/03/05 08:07:15;;;;;;;7.57;3.03;;;20.30;33.20;;;;;;4939198;28;20036;-64
2021/03/05 08:09:41;;;;;;;6.22;3.10;;;22.60;29.10;;;;;;4953973;28;20073;-64
2021/03/05 08:15:08;;;;;;;6.97;3.20;;;24.80;26.10;;;;;;4951808;28;20059;-65
2021/03/05 08:17:42;;;;;;;8.10;3.20;;;25.00;26.70;;;;;;4940643;28;20032;-65
2021/03/05 08:20:33;;;;;;;7.20;2.85;;;26.90;24.60;;;;;;4934887;28;20027;-65
2021/03/05 08:22:59;;;;;;;5.93;2.88;;;27.70;24.00;;;;;;4942478;28;20043;-65
2021/03/05 08:25:27;;;;;;;5.68;2.65;;;28.10;23.40;;;;;;4949376;28;20528;-65
2021/03/05 08:27:54;;;;;;;5.75;2.33;;;28.60;23.00;;;;;;4970345;28;20024;-65
2021/03/05 08:30:34;;;;;;;6.10;2.72;;;28.50;23.80;;;;;;4962296;28;20095;-65
2021/03/05 08:33:04;;;;;;;5.28;2.35;;;27.90;23.00;;;;;;4941831;28;20089;-65
2021/03/05 08:35:30;;;;;;;5.90;2.33;;;27.80;22.70;;;;;;4944038;28;20175;-65
2021/03/05 08:38:03;;;;;;;7.65;2.55;;;28.10;22.60;;;;;;4948495;28;20039;-65
2021/03/05 08:40:33;;;;;;;6.32;2.15;;;28.40;22.30;;;;;;4945093;28;20036;-65
2021/03/05 08:43:11;;;;;;;4.40;2.08;;;28.60;22.50;;;;;;4946760;28;20039;-65
2021/03/05 08:45:55;;;;;;;5.13;2.30;;;28.40;22.00;;;;;;4949227;28;20036;-65
2021/03/05 08:48:35;;;;;;;6.15;1.88;;;28.40;21.90;;;;;;4941076;28;20039;-64
2021/03/05 08:51:05;;;;;;;6.25;2.10;;;28.40;21.70;;;;;;4945286;28;20052;-65
2021/03/05 08:53:56;;;;;;;5.38;2.30;;;28.50;21.70;;;;;;4941611;28;20905;-65
2021/03/05 08:56:31;;;;;;;6.68;1.90;;;29.10;21.30;;;;;;4942556;28;20062;-65
2021/03/05 08:59:04;;;;;;;6.35;2.28;;;29.70;20.70;;;;;;4934284;28;20040;-65
2021/03/05 09:01:31;;;;;;;6.35;1.90;;;29.90;20.70;;;;;;4938578;28;20055;-65
2021/03/05 09:04:20;;;;;;;6.55;2.60;;;29.80;20.60;;;;;;4944667;28;20063;-65
2021/03/05 09:06:56;;;;;;;8.73;1.85;;;29.60;20.20;;;;;;4947387;28;20130;-65
2021/03/05 09:09:32;;;;;;;8.45;2.17;;;29.00;20.60;;;;;;4945620;28;20035;-65
2021/03/05 09:12:13;;;;;;;4.97;1.95;;;28.90;20.70;;;;;;4941791;28;20070;-65
2021/03/05 09:14:40;;;;;;;9.85;2.83;;;29.00;20.60;;;;;;4946791;28;20105;-65
2021/03/05 09:17:08;;;;;;;5.90;1.98;;;28.20;20.10;;;;;;4966837;28;20085;-65
2021/03/05 09:19:36;;;;;;;4.28;1.90;;;27.20;20.60;;;;;;4956961;28;20027;-65
2021/03/05 09:22:31;;;;;;;5.63;2.03;;;26.70;21.10;;;;;;4949410;28;20035;-65
2021/03/05 09:25:03;;;;;;;5.85;1.90;;;26.90;21.40;;;;;;4969972;28;20051;-65
2021/03/05 09:27:37;;;;;;;5.15;1.52;;;27.40;21.20;;;;;;4956588;28;20504;-64
2021/03/05 09:30:13;;;;;;;5.38;1.88;;;28.00;20.90;;;;;;4943995;28;20080;-64
2021/03/05 09:32:53;;;;;;;6.13;1.75;;;28.30;20.30;;;;;;4946161;28;20034;-65
2021/03/05 09:35:29;;;;;;;4.15;1.80;;;28.10;21.00;;;;;;4947510;28;20051;-64
2021/03/05 09:37:56;;;;;;;5.30;1.83;;;28.00;20.20;;;;;;4943530;28;20035;-64
2021/03/05 09:40:23;;;;;;;7.10;2.08;;;27.30;20.30;;;;;;4931481;28;20027;-64
2021/03/05 09:42:59;;;;;;;5.85;1.60;;;26.80;20.50;;;;;;4937446;28;20047;-65
2021/03/05 09:45:52;;;;;;;4.28;1.50;;;26.30;20.90;;;;;;4952050;28;20058;-64
2021/03/05 09:48:28;;;;;;;4.97;1.83;;;26.00;20.80;;;;;;4959108;28;20062;-64
2021/03/05 09:50:57;;;;;;;4.85;1.65;;;25.40;21.10;;;;;;4947601;28;20056;-64
2021/03/05 09:53:32;;;;;;;8.13;2.15;;;24.40;21.90;;;;;;4949806;29;20032;-64
2021/03/05 09:56:03;;;;;;;4.00;1.60;;;23.60;22.00;;;;;;4946321;28;20438;-64
2021/03/05 09:58:29;;;;;;;7.15;2.00;;;22.80;22.20;;;;;;4948594;28;20031;-64
2021/03/05 10:00:56;;;;;;;2.05;1.20;;;21.80;22.30;;;;;;4947753;28;20042;-64
2021/03/05 10:03:22;;;;;;;4.72;1.60;;;20.60;22.80;;;;;;4946118;28;20052;-63
2021/03/05 10:05:48;;;;;;;6.60;1.75;;;19.60;23.40;;;;;;4947444;28;20039;-64
2021/03/05 10:08:21;;;;;;;5.28;1.70;;;19.00;24.10;;;;;;4949289;28;20043;-64
2021/03/05 10:11:14;;;;;;;4.65;1.67;;;19.40;24.00;;;;;;4946899;28;20088;-64
2021/03/05 10:13:42;;;;;;;5.28;1.70;;;20.20;23.00;;;;;;4949969;28;20047;-64
2021/03/05 10:16:28;;;;;;;5.18;1.77;;;20.30;22.80;;;;;;4945514;28;20051;-64
2021/03/05 10:19:05;;;;;;;4.70;1.55;;;21.00;23.20;;;;;;4958115;28;20027;-64
2021/03/05 10:21:32;;;;;;;8.27;1.98;;;22.20;21.80;;;;;;4990055;28;20090;-64
2021/03/05 10:24:04;;;;;;;3.85;1.80;;;22.80;21.30;;;;;;4949207;28;20046;-64
2021/03/05 10:26:29;;;;;;;4.45;1.80;;;23.10;21.10;;;;;;4948564;28;20027;-64
2021/03/05 10:29:03;;;;;;;3.55;1.55;;;23.90;21.00;;;;;;4961930;28;20043;-64
2021/03/05 10:31:43;;;;;;;3.33;1.48;;;25.40;20.50;;;;;;4948880;28;20074;-64
2021/03/05 10:34:19;;;;;;;4.28;1.58;;;26.90;19.50;;;;;;4959314;28;20034;-65
2021/03/05 10:36:44;;;;;;;4.45;1.27;;;27.30;18.70;;;;;;4943698;28;20039;-64
2021/03/05 10:39:10;;;;;;;2.67;1.10;;;27.20;19.20;;;;;;4940535;29;20039;-64
2021/03/05 10:41:37;;;;;;;3.97;1.40;;;24.10;18.80;;;;;;4941187;28;20070;-64
2021/03/05 10:44:03;;;;;;;5.78;1.35;;;21.80;19.10;;;;;;4943687;28;20040;-64
2021/03/05 10:46:28;;;;;;;3.28;1.00;;;21.30;19.70;;;;;;4945367;28;20043;-63
2021/03/05 10:48:54;;;;;;;2.65;1.08;;;20.50;20.70;;;;;;4957289;28;20035;-64
2021/03/05 10:51:20;;;;;;;4.00;1.35;;;21.10;21.00;;;;;;4945213;28;20047;-64
2021/03/05 10:53:45;;;;;;;3.25;1.25;;;22.60;20.60;;;;;;4947301;28;20084;-63
2021/03/05 10:56:11;;;;;;;4.25;1.20;;;24.30;20.00;;;;;;4945584;28;20106;-64
2021/03/05 10:58:37;;;;;;;3.30;1.25;;;26.90;18.20;;;;;;4940965;28;20481;-64
2021/03/05 11:01:02;;;;;;;3.17;1.52;;;27.00;19.00;;;;;;4935343;28;20118;-64
2021/03/05 11:03:28;;;;;;;3.92;1.40;;;28.40;18.30;;;;;;4945677;28;20065;-64
2021/03/05 11:05:54;;;;;;;4.68;1.42;;;29.00;17.70;;;;;;4947854;28;20062;-65
2021/03/05 11:08:19;;;;;;;3.33;1.25;;;29.00;17.20;;;;;;4992215;28;20036;-64
2021/03/05 11:10:47;;;;;;;3.13;1.10;;;29.20;17.40;;;;;;4965609;28;20473;-67
2021/03/05 11:13:12;;;;;;;3.50;1.08;;;29.10;17.10;;;;;;4946912;28;20035;-64
2021/03/05 11:15:38;;;;;;;3.83;1.25;;;29.40;16.60;;;;;;4941587;28;20119;-64
2021/03/05 11:18:04;;;;;;;1.25;1.00;;;29.60;16.60;;;;;;4945893;28;20036;-64
2021/03/05 11:20:29;;;;;;;2.92;1.10;;;29.70;16.80;;;;;;4939133;28;20935;-64
2021/03/05 11:22:55;;;;;;;2.65;1.35;;;29.40;16.80;;;;;;4943934;28;20493;-64
2021/03/05 11:25:21;;;;;;;3.80;1.50;;;29.30;17.40;;;;;;4969938;28;20068;-64
2021/03/05 11:27:47;;;;;;;2.65;1.20;;;30.10;17.10;;;;;;4941539;28;20039;-63
2021/03/05 11:30:14;;;;;;;2.33;1.20;;;30.10;16.20;;;;;;4940009;28;20039;-64
2021/03/05 11:32:39;;;;;;;1.95;1.13;;;29.60;15.90;;;;;;4935620;28;20032;-64
2021/03/05 11:35:06;;;;;;;2.63;1.38;;;28.80;16.10;;;;;;4943945;28;20473;-64
2021/03/05 11:37:31;;;;;;;4.30;1.20;;;28.10;16.20;;;;;;4940036;28;20148;-64
2021/03/05 11:39:57;;;;;;;4.13;2.15;;;27.30;16.40;;;;;;4952515;28;20484;-63
2021/03/05 11:42:24;;;;;;;3.45;1.30;;;27.10;17.00;;;;;;4963734;28;20038;-62
2021/03/05 11:44:50;;;;;;;3.53;1.20;;;25.40;17.10;;;;;;4944316;28;20117;-64
2021/03/05 11:47:16;;;;;;;3.25;1.30;;;25.10;17.70;;;;;;4999661;28;20435;-64
2021/03/05 11:49:43;;;;;;;4.30;1.63;;;22.80;18.00;;;;;;4966574;28;20067;-63
2021/03/05 11:52:09;;;;;;;2.47;1.00;;;20.90;18.60;;;;;;4939348;28;20504;-63
2021/03/05 11:54:34;;;;;;;3.60;1.45;;;19.20;19.10;;;;;;4945474;28;20051;-63
2021/03/05 11:57:00;;;;;;;2.20;1.20;;;17.50;20.10;;;;;;4975801;28;20031;-63
2021/03/05 11:59:26;;;;;;;2.03;1.15;;;16.20;21.30;;;;;;4990076;28;20033;-63
2021/03/05 12:01:51;;;;;;;3.13;1.20;;;15.50;22.60;;;;;;5049505;28;20033;-63
2021/03/05 12:04:17;;;;;;;4.35;1.02;;;15.00;22.60;;;;;;4999419;28;20040;-63
2021/03/05 12:06:43;;;;;;;1.73;1.00;;;14.40;22.80;;;;;;4970063;28;20027;-63
2021/03/05 12:09:08;;;;;;;3.15;1.20;;;14.00;23.70;;;;;;5005414;28;20057;-63
2021/03/05 12:11:35;;;;;;;7.10;2.15;;;13.70;24.10;;;;;;5050055;28;20482;-63
2021/03/05 12:14:00;;;;;;;5.97;1.30;;;13.60;25.00;;;;;;4963268;28;20114;-63
2021/03/05 12:16:26;;;;;;;3.90;0.93;;;13.70;25.50;;;;;;4961938;28;20150;-63
2021/03/05 12:18:52;;;;;;;2.03;0.90;;;13.80;25.40;;;;;;4955908;28;20031;-64
2021/03/05 12:21:18;;;;;;;4.75;1.23;;;13.80;24.80;;;;;;4954083;28;20042;-63
2021/03/05 12:23:44;;;;;;;10.18;1.88;;;13.70;25.10;;;;;;5002955;28;20037;-63
2021/03/05 12:26:09;;;;;;;3.70;0.95;;;13.70;26.00;;;;;;4958801;28;20118;-63
2021/03/05 12:28:35;;;;;;;1.95;0.73;;;13.70;25.60;;;;;;4961159;28;20400;-63
2021/03/05 12:31:00;;;;;;;4.15;1.10;;;13.60;25.40;;;;;;4986145;28;20028;-63
2021/03/05 12:33:26;;;;;;;2.00;1.20;;;13.40;25.20;;;;;;5006864;28;20033;-63
2021/03/05 12:35:52;;;;;;;3.50;0.90;;;13.10;25.20;;;;;;4967538;28;20043;-64
2021/03/05 12:38:17;;;;;;;1.98;0.80;;;12.90;25.20;;;;;;4995441;28;20039;-63
2021/03/05 12:40:43;;;;;;;1.90;1.02;;;12.70;25.00;;;;;;5021931;28;20031;-63
2021/03/05 12:43:09;;;;;;;3.83;0.90;;;12.50;25.10;;;;;;4972922;28;20051;-63
2021/03/05 12:45:35;;;;;;;1.77;1.00;;;12.30;25.60;;;;;;4973068;28;20039;-63
2021/03/05 12:48:01;;;;;;;1.08;0.68;;;12.20;25.50;;;;;;4962497;28;20043;-63
2021/03/05 12:50:26;;;;;;;2.85;0.90;;;12.10;26.10;;;;;;4943735;28;20413;-63
2021/03/05 12:52:52;;;;;;;3.35;0.85;;;12.20;26.50;;;;;;4965716;28;20048;-63
2021/03/05 12:55:17;;;;;;;2.47;0.90;;;12.40;26.80;;;;;;4980729;28;20046;-62
2021/03/05 12:57:43;;;;;;;2.40;1.00;;;12.50;26.80;;;;;;5001424;28;20351;-63
2021/03/05 13:00:10;;;;;;;2.42;0.90;;;12.60;27.70;;;;;;4967330;28;20151;-63
2021/03/05 13:02:35;;;;;;;1.92;0.80;;;12.90;27.90;;;;;;4995638;28;20034;-63